createdAt,value
2023-02-16T00:02:15.951Z,3.82
2023-02-16T00:04:48.127Z,3.81
2023-02-16T00:07:17.615Z,3.78
2023-02-16T00:09:45.767Z,3.74
2023-02-16T00:12:37.149Z,3.73
2023-02-16T00:15:16.079Z,3.72
2023-02-16T00:17:46.605Z,3.72
2023-02-16T00:20:19.670Z,3.79
2023-02-16T00:22:49.550Z,3.80
2023-02-16T00:25:18.799Z,3.71
2023-02-16T00:27:49.251Z,3.71
2023-02-16T00:30:25.751Z,3.68
2023-02-16T00:32:54.649Z,3.67
2023-02-16T00:35:24.817Z,3.79
2023-02-16T00:37:55.446Z,3.66
2023-02-16T00:40:26.712Z,3.58
2023-02-16T00:42:57.536Z,3.52
2023-02-16T00:45:26.535Z,3.51
2023-02-16T00:47:55.682Z,3.48
2023-02-16T00:50:27.548Z,3.52
2023-02-16T00:53:00.202Z,3.48
2023-02-16T00:55:30.188Z,3.46
2023-02-16T00:58:06.510Z,3.42
2023-02-16T01:00:37.370Z,3.46
2023-02-16T01:03:09.915Z,3.35
2023-02-16T01:05:39.765Z,3.45
2023-02-16T01:08:32.698Z,3.43
2023-02-16T01:11:13.970Z,3.38
2023-02-16T01:13:46.576Z,3.31
2023-02-16T01:16:18.264Z,3.29
2023-02-16T01:18:49.215Z,3.31
2023-02-16T01:21:21.779Z,3.33
2023-02-16T01:23:52.500Z,3.26
2023-02-16T01:26:25.199Z,3.24
2023-02-16T01:28:53.230Z,3.24
2023-02-16T01:31:23.408Z,3.22
2023-02-16T01:33:52.948Z,3.20
2023-02-16T01:36:25.049Z,3.20
2023-02-16T01:38:54.393Z,3.18
2023-02-16T01:41:31.615Z,3.15
2023-02-16T01:44:06.981Z,3.11
2023-02-16T01:46:41.534Z,3.05
2023-02-16T01:49:13.990Z,3.05
2023-02-16T01:51:50.611Z,3.15
2023-02-16T01:54:29.853Z,3.16
2023-02-16T01:57:01.843Z,3.09
2023-02-16T01:59:39.924Z,3.07
2023-02-16T02:02:23.075Z,3.02
2023-02-16T02:05:11.776Z,2.98
2023-02-16T02:07:45.514Z,2.91
2023-02-16T02:10:21.898Z,2.87
2023-02-16T02:12:58.715Z,2.86
2023-02-16T02:15:32.692Z,2.93
2023-02-16T02:18:04.172Z,2.85
2023-02-16T02:21:04.193Z,2.84
2023-02-16T02:23:45.341Z,2.81
2023-02-16T02:26:58.360Z,2.81
2023-02-16T02:29:58.883Z,2.84
2023-02-16T02:32:38.137Z,2.89
2023-02-16T02:35:22.569Z,2.82
2023-02-16T02:37:56.049Z,2.83
2023-02-16T02:40:32.765Z,2.75
2023-02-16T02:43:07.691Z,2.72
2023-02-16T02:45:42.202Z,2.69
2023-02-16T02:48:14.039Z,2.71
2023-02-16T02:51:09.563Z,2.68
2023-02-16T02:53:41.994Z,2.74
2023-02-16T02:56:29.045Z,2.69
2023-02-16T02:59:17.167Z,2.72
2023-02-16T03:01:48.157Z,2.72
2023-02-16T03:04:21.934Z,2.65
2023-02-16T03:06:53.495Z,2.63
2023-02-16T03:09:23.186Z,2.61
2023-02-16T03:12:14.976Z,2.61
2023-02-16T03:14:45.743Z,2.66
2023-02-16T03:17:33.103Z,2.68
2023-02-16T03:20:21.890Z,2.62
2023-02-16T03:23:09.933Z,2.58
2023-02-16T03:25:57.308Z,2.49
2023-02-16T03:28:49.816Z,2.45
2023-02-16T03:31:21.676Z,2.44
2023-02-16T03:33:54.481Z,2.52
2023-02-16T03:36:28.632Z,2.44
2023-02-16T03:38:58.639Z,2.48
2023-02-16T03:41:27.284Z,2.44
2023-02-16T03:43:55.333Z,2.44
2023-02-16T03:46:23.935Z,2.40
2023-02-16T03:48:52.952Z,2.40
2023-02-16T03:51:23.273Z,2.33
2023-02-16T03:53:54.659Z,2.36
2023-02-16T03:56:24.131Z,2.39
2023-02-16T03:58:52.008Z,2.33
2023-02-16T04:01:20.521Z,2.28
2023-02-16T04:03:49.196Z,2.28
2023-02-16T04:06:18.966Z,2.17
2023-02-16T04:08:47.106Z,2.18
2023-02-16T04:11:33.836Z,2.15
2023-02-16T04:14:01.758Z,2.13
2023-02-16T04:16:30.616Z,2.12
2023-02-16T04:19:02.082Z,2.15
2023-02-16T04:21:30.585Z,2.04
2023-02-16T04:24:00.225Z,2.18
2023-02-16T04:26:31.086Z,2.08
2023-02-16T04:29:02.030Z,2.03
2023-02-16T04:31:33.267Z,2.07
2023-02-16T04:34:02.884Z,2.13
2023-02-16T04:36:31.554Z,2.13
2023-02-16T04:39:02.212Z,2.17
2023-02-16T04:41:34.864Z,2.16
2023-02-16T04:44:02.760Z,2.23
2023-02-16T04:46:32.835Z,2.21
2023-02-16T04:49:02.554Z,2.20
2023-02-16T04:51:31.333Z,2.23
2023-02-16T04:54:03.830Z,2.21
2023-02-16T04:56:40.415Z,2.19
2023-02-16T04:59:10.118Z,2.19
2023-02-16T05:01:40.092Z,2.11
2023-02-16T05:04:10.306Z,2.03
2023-02-16T05:06:39.047Z,2.03
2023-02-16T05:09:07.868Z,2.02
2023-02-16T05:11:55.806Z,2.04
2023-02-16T05:14:43.049Z,1.99
2023-02-16T05:17:18.478Z,2.11
2023-02-16T05:19:48.146Z,2.14
2023-02-16T05:22:16.926Z,2.13
2023-02-16T05:24:45.970Z,2.04
2023-02-16T05:27:18.583Z,2.07
2023-02-16T05:29:47.339Z,2.06
2023-02-16T05:32:15.963Z,1.97
2023-02-16T05:34:44.485Z,2.02
2023-02-16T05:37:12.955Z,2.00
2023-02-16T05:39:43.543Z,1.97
2023-02-16T05:42:11.936Z,1.89
2023-02-16T05:44:44.711Z,1.84
2023-02-16T05:47:14.144Z,1.78
2023-02-16T05:49:43.004Z,1.80
2023-02-16T05:52:11.478Z,1.86
2023-02-16T05:54:40.574Z,1.88
2023-02-16T05:57:11.966Z,1.89
2023-02-16T05:59:40.898Z,1.88
2023-02-16T06:02:11.929Z,1.88
2023-02-16T06:04:41.071Z,1.86
2023-02-16T06:07:08.957Z,1.81
2023-02-16T06:09:37.256Z,1.81
2023-02-16T06:12:07.837Z,1.85
2023-02-16T06:14:36.018Z,1.76
2023-02-16T06:17:05.896Z,1.72
2023-02-16T06:19:35.637Z,1.78
2023-02-16T06:22:04.299Z,1.73
2023-02-16T06:24:37.212Z,1.74
2023-02-16T06:27:08.818Z,1.82
2023-02-16T06:29:38.206Z,1.70
2023-02-16T06:32:07.425Z,1.78
2023-02-16T06:34:36.968Z,1.79
2023-02-16T06:37:05.408Z,1.76
2023-02-16T06:39:37.569Z,1.77
2023-02-16T06:42:06.132Z,1.84
2023-02-16T06:44:39.221Z,1.82
2023-02-16T06:47:20.683Z,1.92
2023-02-16T06:49:50.549Z,1.95
2023-02-16T06:52:18.853Z,1.99
2023-02-16T06:54:49.658Z,2.03
2023-02-16T06:57:18.314Z,2.07
2023-02-16T06:59:46.341Z,2.13
2023-02-16T07:02:14.737Z,2.32
2023-02-16T07:04:44.574Z,2.55
2023-02-16T07:07:15.906Z,2.82
2023-02-16T07:09:44.933Z,3.37
2023-02-16T07:12:14.434Z,3.73
2023-02-16T07:14:44.160Z,3.96
2023-02-16T07:17:13.188Z,4.10
2023-02-16T07:19:42.812Z,4.49
2023-02-16T07:22:11.965Z,5.03
2023-02-16T07:24:41.363Z,5.60
2023-02-16T07:27:11.945Z,6.07
2023-02-16T07:29:40.496Z,5.95
2023-02-16T07:32:11.089Z,6.06
2023-02-16T07:34:41.689Z,6.09
2023-02-16T07:37:11.675Z,6.09
2023-02-16T07:39:42.940Z,6.27
2023-02-16T07:42:11.582Z,6.34
2023-02-16T07:44:42.233Z,6.06
2023-02-16T07:47:11.770Z,6.21
2023-02-16T07:49:43.195Z,5.70
2023-02-16T07:52:11.390Z,6.17
2023-02-16T07:54:39.992Z,6.17
2023-02-16T07:57:11.455Z,6.49
2023-02-16T07:59:39.414Z,7.03
2023-02-16T08:02:09.065Z,7.38
2023-02-16T08:04:38.270Z,7.97
2023-02-16T08:07:06.145Z,8.06
2023-02-16T08:09:34.290Z,7.89
2023-02-16T08:12:02.792Z,7.64
2023-02-16T08:14:32.790Z,7.83
2023-02-16T08:17:00.782Z,7.94
2023-02-16T08:19:31.074Z,8.69
2023-02-16T08:21:59.669Z,8.95
2023-02-16T08:24:27.908Z,8.78
2023-02-16T08:26:56.685Z,8.12
2023-02-16T08:29:25.776Z,8.11
2023-02-16T08:31:56.701Z,8.07
2023-02-16T08:34:26.523Z,8.07
2023-02-16T08:36:56.441Z,8.76
2023-02-16T08:39:27.526Z,9.23
2023-02-16T08:41:56.727Z,9.50
2023-02-16T08:44:25.581Z,10.03
2023-02-16T08:47:01.448Z,10.74
2023-02-16T08:49:29.817Z,11.45
2023-02-16T08:52:01.479Z,11.18
2023-02-16T08:54:33.368Z,11.71
2023-02-16T08:57:02.998Z,12.10
2023-02-16T08:59:34.331Z,12.62
2023-02-16T09:02:04.094Z,13.50
2023-02-16T09:04:36.696Z,13.81
2023-02-16T09:07:05.380Z,13.39
2023-02-16T09:09:35.186Z,13.03
2023-02-16T09:12:05.618Z,13.95
2023-02-16T09:14:34.211Z,13.70
2023-02-16T09:17:03.776Z,13.86
2023-02-16T09:19:33.446Z,14.51
2023-02-16T09:22:03.253Z,15.10
2023-02-16T09:24:32.836Z,15.15
2023-02-16T09:27:01.682Z,15.34
2023-02-16T09:29:30.721Z,15.42
2023-02-16T09:32:02.280Z,14.98
2023-02-16T09:34:31.944Z,14.21
2023-02-16T09:37:01.245Z,14.10
2023-02-16T09:39:31.387Z,14.50
2023-02-16T09:42:14.132Z,14.80
2023-02-16T09:44:56.898Z,14.90
2023-02-16T09:47:29.380Z,14.64
2023-02-16T09:50:03.976Z,14.52
2023-02-16T09:52:39.817Z,14.77
2023-02-16T09:55:10.146Z,15.95
2023-02-16T09:57:55.556Z,14.75
2023-02-16T10:00:34.677Z,14.86
2023-02-16T10:03:13.548Z,14.94
2023-02-16T10:05:49.810Z,14.43
2023-02-16T10:08:27.409Z,13.81
2023-02-16T10:11:04.058Z,14.42
2023-02-16T10:13:39.382Z,14.91
2023-02-16T10:16:17.035Z,14.76
2023-02-16T10:18:49.664Z,14.50
2023-02-16T10:21:23.897Z,15.02
2023-02-16T10:23:56.631Z,14.41
2023-02-16T10:26:31.539Z,15.20
2023-02-16T10:29:05.367Z,14.95
2023-02-16T10:31:39.844Z,14.32
2023-02-16T10:34:21.277Z,13.81
2023-02-16T10:37:12.493Z,13.92
2023-02-16T10:39:47.255Z,14.27
2023-02-16T10:42:22.351Z,14.31
2023-02-16T10:44:57.720Z,15.27
2023-02-16T10:47:32.891Z,15.39
2023-02-16T10:50:02.860Z,14.78
2023-02-16T10:52:37.171Z,14.68
2023-02-16T10:55:09.478Z,15.53
2023-02-16T10:57:37.661Z,15.43
2023-02-16T11:00:09.829Z,14.14
2023-02-16T11:02:44.426Z,14.13
2023-02-16T11:05:41.235Z,13.94
2023-02-16T11:08:12.955Z,14.24
2023-02-16T11:10:48.841Z,13.66
2023-02-16T11:13:33.922Z,13.08
2023-02-16T11:16:06.866Z,13.01
2023-02-16T11:18:37.882Z,13.15
2023-02-16T11:21:09.599Z,13.25
2023-02-16T11:23:41.237Z,13.48
2023-02-16T11:26:29.001Z,12.86
2023-02-16T11:29:08.705Z,12.67
2023-02-16T11:31:38.988Z,12.64
2023-02-16T11:34:09.461Z,12.53
2023-02-16T11:36:42.213Z,13.01
2023-02-16T11:39:18.595Z,13.26
2023-02-16T11:41:51.050Z,13.27
2023-02-16T11:44:27.674Z,13.99
2023-02-16T11:46:57.373Z,13.87
2023-02-16T11:49:33.586Z,13.30
2023-02-16T11:52:02.802Z,12.71
2023-02-16T11:54:33.952Z,12.87
2023-02-16T11:57:04.189Z,13.09
2023-02-16T11:59:36.713Z,13.39
2023-02-16T12:02:28.008Z,13.20
2023-02-16T12:05:09.404Z,13.51
2023-02-16T12:07:43.212Z,13.44
2023-02-16T12:10:17.109Z,13.05
2023-02-16T12:12:52.760Z,12.79
2023-02-16T12:15:28.919Z,12.59
2023-02-16T12:18:16.110Z,12.56
2023-02-16T12:20:50.843Z,12.70
2023-02-16T12:23:41.343Z,13.06
2023-02-16T12:26:35.666Z,13.36
2023-02-16T12:29:15.138Z,13.38
2023-02-16T12:32:00.730Z,13.31
2023-02-16T12:34:39.881Z,13.23
2023-02-16T12:37:15.050Z,13.10
2023-02-16T12:39:47.384Z,13.02
2023-02-16T12:42:39.254Z,13.21
2023-02-16T12:45:14.683Z,13.23
2023-02-16T12:47:46.453Z,13.16
2023-02-16T12:50:20.498Z,13.16
2023-02-16T12:52:54.033Z,13.47
2023-02-16T12:55:25.900Z,13.25
2023-02-16T12:58:05.502Z,12.95
2023-02-16T13:00:40.710Z,12.56
2023-02-16T13:03:18.531Z,12.26
2023-02-16T13:05:50.944Z,12.41
2023-02-16T13:08:26.357Z,12.76
2023-02-16T13:10:59.887Z,12.64
2023-02-16T13:13:33.445Z,12.68
2023-02-16T13:16:08.308Z,12.98
2023-02-16T13:18:41.851Z,13.05
2023-02-16T13:21:14.488Z,13.41
2023-02-16T13:23:57.802Z,13.41
2023-02-16T13:26:43.218Z,13.26
2023-02-16T13:29:33.872Z,13.46
2023-02-16T13:32:19.284Z,13.23
2023-02-16T13:35:28.856Z,13.49
2023-02-16T13:38:09.816Z,13.60
2023-02-16T13:41:03.278Z,13.47
2023-02-16T13:43:34.678Z,13.70
2023-02-16T13:46:16.551Z,13.44
2023-02-16T13:48:48.001Z,13.24
2023-02-16T13:51:23.012Z,13.24
2023-02-16T13:53:56.666Z,13.39
2023-02-16T13:56:36.673Z,13.30
2023-02-16T13:59:49.840Z,13.21
2023-02-16T14:02:57.391Z,13.17
2023-02-16T14:05:55.709Z,12.82
2023-02-16T14:08:28.565Z,12.58
2023-02-16T14:11:11.676Z,12.25
2023-02-16T14:13:52.579Z,12.13
2023-02-16T14:16:33.568Z,12.10
2023-02-16T14:19:18.975Z,12.22
2023-02-16T14:21:51.069Z,12.25
2023-02-16T14:24:31.228Z,12.18
2023-02-16T14:27:01.619Z,12.17
2023-02-16T14:29:33.997Z,12.20
2023-02-16T14:32:06.460Z,12.16
2023-02-16T14:34:41.009Z,12.18
2023-02-16T14:37:36.917Z,12.22
2023-02-16T14:40:19.149Z,12.14
2023-02-16T14:42:56.983Z,12.04
2023-02-16T14:46:06.573Z,12.08
2023-02-16T14:48:56.739Z,12.09
2023-02-16T14:51:58.404Z,11.96
2023-02-16T14:54:57.460Z,12.02
2023-02-16T14:57:31.235Z,12.05
2023-02-16T15:00:04.676Z,12.02
2023-02-16T15:02:35.978Z,11.93
2023-02-16T15:05:18.659Z,11.92
2023-02-16T15:07:53.548Z,11.96
2023-02-16T15:10:26.475Z,11.84
2023-02-16T15:12:57.680Z,11.75
2023-02-16T15:15:31.504Z,11.86
2023-02-16T15:18:02.595Z,11.76
2023-02-16T15:20:40.932Z,11.82
2023-02-16T15:23:20.927Z,11.77
2023-02-16T15:25:56.770Z,11.84
2023-02-16T15:28:27.859Z,11.74
2023-02-16T15:30:59.359Z,11.74
2023-02-16T15:33:32.507Z,11.81
2023-02-16T15:36:03.236Z,11.73
2023-02-16T15:38:38.046Z,11.74
2023-02-16T15:41:08.935Z,11.69
2023-02-16T15:43:41.911Z,11.60
2023-02-16T15:46:17.127Z,11.62
2023-02-16T15:48:45.866Z,11.54
2023-02-16T15:51:19.534Z,11.48
2023-02-16T15:53:51.790Z,11.43
2023-02-16T15:56:38.148Z,11.41
2023-02-16T15:59:20.850Z,11.40
2023-02-16T16:01:49.879Z,11.34
2023-02-16T16:04:21.039Z,11.27
2023-02-16T16:06:50.757Z,11.23
2023-02-16T16:09:30.875Z,11.22
2023-02-16T16:12:00.798Z,11.11
2023-02-16T16:14:32.183Z,11.15
2023-02-16T16:17:01.263Z,11.22
2023-02-16T16:19:33.972Z,11.07
2023-02-16T16:22:04.293Z,11.09
2023-02-16T16:24:39.053Z,11.05
2023-02-16T16:27:09.633Z,11.00
2023-02-16T16:29:41.209Z,10.99
2023-02-16T16:32:22.151Z,10.99
2023-02-16T16:34:54.535Z,10.94
2023-02-16T16:37:27.906Z,10.92
2023-02-16T16:40:06.640Z,10.87
2023-02-16T16:42:40.290Z,10.89
2023-02-16T16:45:36.578Z,10.85
2023-02-16T16:48:11.528Z,10.79
2023-02-16T16:50:42.658Z,10.75
2023-02-16T16:53:40.084Z,10.70
2023-02-16T16:56:13.055Z,10.72
2023-02-16T16:58:41.113Z,10.83
2023-02-16T17:01:11.744Z,10.78
2023-02-16T17:03:43.422Z,10.75
2023-02-16T17:06:12.924Z,10.71
2023-02-16T17:08:41.915Z,10.65
2023-02-16T17:11:14.928Z,10.53
2023-02-16T17:13:43.762Z,10.65
2023-02-16T17:16:15.494Z,10.55
2023-02-16T17:18:44.368Z,10.44
2023-02-16T17:21:15.077Z,10.36
2023-02-16T17:23:52.403Z,10.26
2023-02-16T17:26:25.018Z,10.27
2023-02-16T17:28:53.570Z,10.25
2023-02-16T17:31:22.271Z,10.24
2023-02-16T17:33:50.578Z,10.25
2023-02-16T17:36:20.013Z,10.34
2023-02-16T17:38:49.989Z,10.35
2023-02-16T17:41:24.901Z,10.22
2023-02-16T17:43:55.040Z,10.29
2023-02-16T17:46:24.716Z,10.33
2023-02-16T17:48:55.051Z,10.31
2023-02-16T17:51:25.644Z,10.31
2023-02-16T17:53:54.287Z,10.34
2023-02-16T17:56:25.613Z,10.32
2023-02-16T17:58:55.120Z,10.31
2023-02-16T18:01:23.606Z,10.28
2023-02-16T18:03:55.971Z,10.26
2023-02-16T18:06:29.196Z,10.16
2023-02-16T18:08:58.948Z,10.05
2023-02-16T18:11:28.389Z,10.10
2023-02-16T18:14:02.632Z,10.03
2023-02-16T18:16:31.891Z,10.01
2023-02-16T18:19:01.219Z,10.01
2023-02-16T18:21:29.722Z,10.04
2023-02-16T18:24:00.999Z,9.98
2023-02-16T18:26:33.271Z,9.94
2023-02-16T18:29:06.068Z,9.90
2023-02-16T18:31:35.358Z,9.98
2023-02-16T18:34:06.960Z,9.98
2023-02-16T18:36:36.694Z,9.86
2023-02-16T18:39:06.065Z,9.84
2023-02-16T18:41:34.902Z,9.78
2023-02-16T18:44:07.986Z,9.85
2023-02-16T18:46:36.173Z,9.77
2023-02-16T18:49:06.275Z,9.79
2023-02-16T18:51:38.488Z,9.73
2023-02-16T18:54:06.554Z,9.72
2023-02-16T18:56:35.430Z,9.69
2023-02-16T18:59:05.506Z,9.70
2023-02-16T19:01:38.490Z,9.69
2023-02-16T19:04:07.431Z,9.68
2023-02-16T19:06:37.478Z,9.65
2023-02-16T19:09:06.468Z,9.58
2023-02-16T19:11:34.819Z,9.62
2023-02-16T19:14:03.761Z,9.58
2023-02-16T19:16:32.289Z,9.53
2023-02-16T19:19:05.440Z,9.57
2023-02-16T19:21:33.712Z,9.54
2023-02-16T19:24:04.165Z,9.47
2023-02-16T19:26:33.346Z,9.46
2023-02-16T19:29:02.303Z,9.56
2023-02-16T19:31:32.105Z,9.43
2023-02-16T19:34:01.081Z,9.40
2023-02-16T19:36:34.217Z,9.45
2023-02-16T19:39:02.643Z,9.47
2023-02-16T19:41:33.906Z,9.44
2023-02-16T19:44:02.699Z,9.41
2023-02-16T19:46:31.960Z,9.33
2023-02-16T19:49:01.916Z,9.30
2023-02-16T19:51:29.976Z,9.30
2023-02-16T19:53:59.605Z,9.38
2023-02-16T19:56:28.429Z,9.29
2023-02-16T19:58:59.993Z,9.34
2023-02-16T20:01:32.480Z,9.34
2023-02-16T20:04:02.737Z,9.41
2023-02-16T20:06:34.019Z,9.44
2023-02-16T20:09:04.996Z,9.45
2023-02-16T20:11:33.757Z,9.39
2023-02-16T20:14:02.208Z,9.41
2023-02-16T20:16:32.929Z,9.44
2023-02-16T20:19:01.129Z,9.43
2023-02-16T20:21:31.484Z,9.47
2023-02-16T20:24:02.126Z,9.44
2023-02-16T20:26:34.649Z,9.39
2023-02-16T20:29:04.003Z,9.35
2023-02-16T20:31:35.063Z,9.35
2023-02-16T20:34:04.252Z,9.37
2023-02-16T20:36:33.558Z,9.35
2023-02-16T20:39:01.690Z,9.36
2023-02-16T20:41:31.244Z,9.29
2023-02-16T20:43:59.492Z,9.23
2023-02-16T20:46:27.891Z,9.23
2023-02-16T20:48:55.939Z,9.12
2023-02-16T20:51:23.940Z,9.08
2023-02-16T20:53:52.286Z,9.03
2023-02-16T20:56:23.261Z,8.97
2023-02-16T20:58:53.882Z,8.91
2023-02-16T21:01:24.991Z,8.86
2023-02-16T21:03:55.845Z,8.81
2023-02-16T21:06:24.610Z,8.71
2023-02-16T21:08:55.991Z,8.70
2023-02-16T21:11:25.473Z,8.61
2023-02-16T21:13:54.815Z,8.66
2023-02-16T21:16:23.271Z,8.64
2023-02-16T21:18:51.545Z,8.64
2023-02-16T21:21:19.510Z,8.58
2023-02-16T21:23:50.948Z,8.65
2023-02-16T21:26:20.447Z,8.66
2023-02-16T21:28:48.745Z,8.62
2023-02-16T21:31:20.170Z,8.57
2023-02-16T21:33:48.171Z,8.64
2023-02-16T21:36:18.756Z,8.61
2023-02-16T21:38:47.410Z,8.67
2023-02-16T21:41:25.751Z,8.80
2023-02-16T21:43:55.714Z,8.76
2023-02-16T21:46:25.479Z,8.75
2023-02-16T21:48:52.519Z,8.76
2023-02-16T21:51:24.167Z,8.77
2023-02-16T21:53:53.188Z,8.71
2023-02-16T21:56:34.620Z,8.66
2023-02-16T21:59:03.021Z,8.52
2023-02-16T22:01:33.675Z,8.56
2023-02-16T22:04:05.670Z,8.45
2023-02-16T22:06:37.683Z,8.45
2023-02-16T22:09:07.660Z,8.44
2023-02-16T22:11:35.995Z,8.39
2023-02-16T22:14:07.051Z,8.48
2023-02-16T22:16:41.974Z,8.33
2023-02-16T22:19:15.696Z,8.31
2023-02-16T22:21:47.976Z,8.41
2023-02-16T22:24:17.504Z,8.48
2023-02-16T22:26:47.330Z,8.48
2023-02-16T22:29:16.787Z,8.36
2023-02-16T22:31:47.512Z,8.38
2023-02-16T22:34:17.156Z,8.36
2023-02-16T22:36:45.775Z,8.42
2023-02-16T22:39:18.096Z,8.28
2023-02-16T22:41:46.644Z,8.26
2023-02-16T22:44:16.505Z,8.22
2023-02-16T22:46:47.540Z,8.23
2023-02-16T22:49:18.848Z,8.36
2023-02-16T22:51:47.434Z,8.34
2023-02-16T22:54:16.455Z,8.34
2023-02-16T22:56:44.912Z,8.26
2023-02-16T22:59:13.370Z,8.32
2023-02-16T23:01:41.755Z,8.31
2023-02-16T23:04:15.629Z,8.30
2023-02-16T23:06:47.215Z,8.28
2023-02-16T23:09:18.928Z,8.14
2023-02-16T23:11:49.425Z,8.25
2023-02-16T23:14:17.815Z,8.24
2023-02-16T23:16:47.698Z,8.13
2023-02-16T23:19:20.413Z,8.16
2023-02-16T23:21:49.391Z,8.25
2023-02-16T23:24:24.191Z,8.27
2023-02-16T23:26:53.433Z,8.23
2023-02-16T23:29:22.030Z,8.20
2023-02-16T23:31:50.477Z,8.12
2023-02-16T23:34:23.236Z,8.16
2023-02-16T23:36:51.361Z,8.17
2023-02-16T23:39:20.645Z,8.14
2023-02-16T23:41:50.940Z,8.09
2023-02-16T23:44:19.733Z,8.23
2023-02-16T23:46:47.775Z,8.15
2023-02-16T23:49:16.277Z,8.06
2023-02-16T23:51:47.586Z,8.12
2023-02-16T23:54:15.757Z,8.13
2023-02-16T23:56:48.624Z,8.15
2023-02-16T23:59:16.672Z,8.14
